Time;durP1;ratioP1;P1;durP2;ratioP2;P2;SDS_P1;SDS_P2;PMS_P1;PMS_P2;Temp;Humidity;BMP_temperature;BMP_pressure;BME280_temperature;BME280_humidity;BME280_pressure;Samples;Min_cycle;Max_cycle;Signal;HPM_P1;HPM_P2
2022/03/15 00:00:20;;;;;;;0.00;0.00;;;;;;;1.07;58.43;100923.75;5338169;23;20080;-86
2022/03/15 00:20:23;;;;;;;0.00;0.00;;;;;;;0.97;58.30;100920.47;5529948;23;20106;-81
2022/03/15 00:59:57;;;;;;;0.00;0.00;;;;;;;0.83;59.05;100893.81;5871590;23;20019;-86
2022/03/15 01:06:44;;;;;;;0.00;0.00;;;;;;;0.80;58.84;100887.03;4833432;29;20053;-83
2022/03/15 01:09:50;;;;;;;0.10;0.10;;;;;;;0.78;58.97;100881.13;4802660;29;20027;-83
2022/03/15 01:12:16;;;;;;;0.00;0.00;;;;;;;0.78;59.11;100875.03;4807753;29;20051;-79
2022/03/15 01:14:47;;;;;;;0.00;0.00;;;;;;;0.78;59.04;100875.03;4836902;29;20046;-83
2022/03/15 01:17:15;;;;;;;0.00;0.00;;;;;;;0.75;59.21;100873.56;4820273;29;20038;-82
2022/03/15 01:19:43;;;;;;;0.00;0.00;;;;;;;0.78;58.98;100873.22;4803400;29;20603;-80
2022/03/15 01:22:08;;;;;;;0.00;0.00;;;;;;;0.78;58.69;100865.31;4836879;29;20049;-81
2022/03/15 01:24:34;;;;;;;0.00;0.00;;;;;;;0.80;59.02;100873.06;4852645;29;20029;-80
2022/03/15 01:27:45;;;;;;;0.00;0.00;;;;;;;0.82;58.78;100864.97;4863929;29;20060;-80
2022/03/15 01:30:11;;;;;;;0.00;0.00;;;;;;;0.78;58.83;100857.44;4859707;29;20060;-80
2022/03/15 01:33:33;;;;;;;0.00;0.00;;;;;;;0.80;58.98;100865.16;4865108;29;20490;-81
2022/03/15 01:36:20;;;;;;;0.00;0.00;;;;;;;0.78;58.86;100865.31;4876330;29;20041;-81
2022/03/15 01:38:58;;;;;;;0.00;0.00;;;;;;;0.79;58.94;100866.97;4878525;29;20062;-83
2022/03/15 01:45:42;;;;;;;0.08;0.08;;;;;;;0.80;58.82;100865.97;5032650;23;20903;-82
2022/03/15 01:48:37;;;;;;;0.00;0.00;;;;;;;0.77;58.75;100863.69;4921049;29;20175;-81
2022/03/15 01:51:28;;;;;;;0.00;0.00;;;;;;;0.78;58.41;100861.84;4885833;29;20544;-81
2022/03/15 02:00:14;;;;;;;0.00;0.00;;;;;;;0.75;58.32;100870.09;5022231;23;20063;-81
2022/03/15 02:32:42;;;;;;;0.00;0.00;;;;;;;0.40;59.73;100867.63;4952210;23;20136;-79
2022/03/15 02:35:11;;;;;;;0.00;0.00;;;;;;;0.45;59.55;100859.25;4874637;29;20037;-80
2022/03/15 02:37:39;;;;;;;0.00;0.00;;;;;;;0.42;59.45;100864.84;4881996;29;20033;-78
2022/03/15 02:40:27;;;;;;;0.00;0.00;;;;;;;0.40;59.57;100853.66;4872863;29;20069;-80
2022/03/15 02:42:52;;;;;;;0.00;0.00;;;;;;;0.38;59.75;100863.50;4858906;29;20047;-78
2022/03/15 02:46:03;;;;;;;0.35;0.35;;;;;;;0.36;59.70;100868.13;4878189;29;20028;-80
2022/03/15 02:48:44;;;;;;;0.00;0.00;;;;;;;0.36;59.68;100873.41;4897286;29;20096;-81
2022/03/15 03:37:12;;;;;;;0.00;0.00;;;;;;;0.25;59.71;100908.75;4911595;29;20064;-82
2022/03/15 03:39:37;;;;;;;;;;;;;;;0.27;59.49;100907.59;5283239;23;20144;-81
2022/03/15 03:53:14;;;;;;;0.00;0.00;;;;;;;0.23;59.71;100913.34;5300457;23;20049;-81
2022/03/15 03:56:14;;;;;;;0.00;0.00;;;;;;;0.19;59.98;100901.50;4913898;29;20052;-85
2022/03/15 04:10:46;;;;;;;0.00;0.00;;;;;;;-0.18;59.80;100857.03;5986768;23;20294;31
2022/03/15 04:43:06;;;;;;;0.00;0.00;;;;;;;-0.28;60.95;100864.25;5978053;23;20045;31
2022/03/15 04:49:11;;;;;;;0.00;0.00;;;;;;;-0.08;61.30;100858.69;5386874;23;20316;-83
2022/03/15 05:01:46;;;;;;;0.00;0.00;;;;;;;0.97;59.61;100849.34;5344988;23;20067;-78
2022/03/15 05:13:20;;;;;;;0.00;0.00;;;;;;;2.46;55.92;100857.31;4895351;29;20051;-82
2022/03/15 05:18:56;;;;;;;;;;;;;;;3.11;54.21;100870.91;4878129;29;20049;-79
2022/03/15 05:21:25;;;;;;;0.00;0.00;;;;;;;3.34;54.15;100876.94;4865386;29;19983;-80
2022/03/15 05:23:53;;;;;;;0.00;0.00;;;;;;;3.61;53.16;100887.03;4880002;29;20033;-79
2022/03/15 05:26:19;;;;;;;0.00;0.00;;;;;;;3.82;52.95;100889.75;4862255;29;20036;-78
2022/03/15 05:29:00;;;;;;;0.00;0.00;;;;;;;4.08;52.00;100888.41;4881578;29;20417;-81
2022/03/15 05:31:28;;;;;;;0.20;0.20;;;;;;;4.30;51.18;100883.94;4862626;29;20033;-78
2022/03/15 05:34:22;;;;;;;;;;;;;;;4.52;50.76;100883.94;4884265;29;20017;-81
2022/03/15 05:37:28;;;;;;;0.00;0.00;;;;;;;4.80;50.30;100896.41;4872248;29;19916;-81
2022/03/15 05:44:42;;;;;;;0.00;0.00;;;;;;;5.26;48.19;100892.44;4880203;29;20055;-80
2022/03/15 05:51:34;;;;;;;0.30;0.30;;;;;;;5.55;46.61;100885.25;4879985;29;20040;-81
2022/03/15 05:58:49;;;;;;;0.10;0.10;;;;;;;5.68;46.81;100895.13;4822965;29;20037;-80
2022/03/15 08:37:51;;;;;;;2.25;1.17;;;;;;;9.13;39.86;100910.66;4786759;30;20054;-82
2022/03/15 08:48:01;;;;;;;0.00;0.00;;;;;;;9.49;39.32;100896.72;4785892;30;20091;-82
2022/03/15 08:50:29;;;;;;;0.00;0.00;;;;;;;9.55;39.19;100904.66;4770485;30;20042;-83
2022/03/15 08:52:55;;;;;;;0.03;0.03;;;;;;;9.58;39.18;100911.41;4789756;29;20043;-83
2022/03/15 08:58:25;;;;;;;0.10;0.10;;;;;;;9.67;38.10;100895.91;4860588;29;19919;-85
2022/03/15 09:00:52;;;;;;;0.00;0.00;;;;;;;9.73;37.55;100887.00;4843891;29;20021;-84
2022/03/15 09:03:17;;;;;;;0.00;0.00;;;;;;;9.82;38.22;100877.63;4813384;29;20065;-84
2022/03/15 09:05:43;;;;;;;0.00;0.00;;;;;;;9.82;37.56;100879.47;4859096;29;20060;-83
2022/03/15 09:08:10;;;;;;;0.10;0.10;;;;;;;9.85;37.54;100871.84;4843760;29;20036;-84
2022/03/15 09:10:39;;;;;;;0.00;0.00;;;;;;;9.93;37.65;100870.69;4843903;29;20034;-84
2022/03/15 09:13:07;;;;;;;0.00;0.00;;;;;;;9.93;37.72;100876.03;4858733;29;20116;-82
2022/03/15 09:15:32;;;;;;;0.10;0.10;;;;;;;9.98;37.09;100867.34;4843530;29;20482;-83
2022/03/15 09:17:59;;;;;;;0.00;0.00;;;;;;;10.03;36.66;100862.13;4858862;29;20113;-84
2022/03/15 09:20:25;;;;;;;0.00;0.00;;;;;;;10.12;37.39;100866.13;4858608;29;20025;-84
2022/03/15 09:22:51;;;;;;;0.00;0.00;;;;;;;10.21;36.41;100853.22;4858964;29;20478;-83
2022/03/15 09:25:17;;;;;;;0.73;0.73;;;;;;;10.21;36.49;100851.34;4843363;29;20036;-84
2022/03/15 09:27:43;;;;;;;0.00;0.00;;;;;;;10.23;36.46;100851.97;4858900;29;20482;-84
2022/03/15 09:30:09;;;;;;;0.00;0.00;;;;;;;10.25;36.31;100843.69;4843142;29;20121;-84
2022/03/15 09:32:34;;;;;;;0.00;0.00;;;;;;;10.26;36.17;100850.69;4843324;29;20030;-83
2022/03/15 09:35:00;;;;;;;0.32;0.32;;;;;;;10.24;35.87;100856.25;4843435;29;20048;-85
2022/03/15 09:37:25;;;;;;;0.40;0.40;;;;;;;10.20;36.08;100852.41;4843232;29;20033;-83
2022/03/15 09:39:52;;;;;;;0.40;0.40;;;;;;;10.20;36.36;100849.72;4843153;29;20128;-83
2022/03/15 09:42:20;;;;;;;0.00;0.00;;;;;;;10.23;36.65;100843.94;4842692;29;20044;-83
2022/03/15 09:44:47;;;;;;;8.70;0.77;;;;;;;10.24;37.34;100844.72;4858617;29;20040;-83
2022/03/15 09:47:15;;;;;;;0.10;0.10;;;;;;;10.30;36.88;100841.19;4842993;29;20038;-83
2022/03/15 09:49:43;;;;;;;0.08;0.08;;;;;;;10.36;35.61;100831.41;4843212;29;20038;-83
2022/03/15 09:52:11;;;;;;;0.00;0.00;;;;;;;10.43;35.41;100832.13;4842273;29;20040;-82
2022/03/15 09:54:37;;;;;;;0.30;0.30;;;;;;;10.50;35.62;100827.50;4858271;29;20037;-82
2022/03/15 09:57:04;;;;;;;0.00;0.00;;;;;;;10.62;34.31;100821.31;4858298;29;20049;-84
2022/03/15 09:59:30;;;;;;;0.00;0.00;;;;;;;10.66;34.54;100815.28;4858422;29;20034;-83
2022/03/15 10:01:57;;;;;;;0.00;0.00;;;;;;;10.73;34.37;100817.88;4842873;29;20033;-82
2022/03/15 10:04:24;;;;;;;0.55;0.55;;;;;;;10.79;34.67;100816.94;4857762;29;20034;-84
2022/03/15 10:06:51;;;;;;;0.00;0.00;;;;;;;10.82;34.06;100816.44;4856781;29;20029;-85
2022/03/15 10:09:17;;;;;;;0.00;0.00;;;;;;;10.81;33.93;100804.09;4857853;29;20029;-82
2022/03/15 10:11:42;;;;;;;0.00;0.00;;;;;;;10.88;34.13;100809.34;4858077;29;20406;-83
2022/03/15 10:14:09;;;;;;;0.60;0.60;;;;;;;10.92;34.01;100805.13;4857945;29;20196;-82
2022/03/15 10:16:40;;;;;;;0.00;0.00;;;;;;;10.91;33.42;100795.47;4858159;29;20124;-83
2022/03/15 10:19:10;;;;;;;0.00;0.00;;;;;;;10.96;34.74;100794.78;4857939;29;20124;-84
2022/03/15 10:21:49;;;;;;;0.00;0.00;;;;;;;10.98;33.60;100790.00;4858005;29;20391;-82
2022/03/15 10:24:23;;;;;;;0.00;0.00;;;;;;;11.01;33.89;100785.00;4857774;29;20136;-83
2022/03/15 10:26:51;;;;;;;0.85;0.85;;;;;;;11.00;33.87;100769.19;4857745;29;20029;-81
2022/03/15 10:29:17;;;;;;;0.15;0.15;;;;;;;11.01;34.65;100758.22;4857654;29;20037;-82
2022/03/15 10:31:44;;;;;;;0.30;0.30;;;;;;;11.09;34.55;100750.88;4857802;29;20118;-81
2022/03/15 10:34:11;;;;;;;0.10;0.10;;;;;;;11.07;34.33;100744.94;4842233;29;20036;-82
2022/03/15 10:36:45;;;;;;;0.00;0.00;;;;;;;11.15;34.45;100744.56;4842631;29;20178;-85
2022/03/15 10:39:14;;;;;;;0.00;0.00;;;;;;;11.13;34.82;100739.47;4857440;29;20030;-82
2022/03/15 10:41:51;;;;;;;0.00;0.00;;;;;;;11.24;34.27;100745.81;4857718;29;20041;-82
2022/03/15 10:44:26;;;;;;;0.00;0.00;;;;;;;11.30;34.49;100736.03;4842194;29;20422;-82
2022/03/15 10:47:12;;;;;;;0.20;0.20;;;;;;;11.34;34.15;100716.56;4842335;29;20049;-82
2022/03/15 10:49:54;;;;;;;0.10;0.10;;;;;;;11.42;33.76;100720.72;4842357;29;20046;-83
2022/03/15 10:52:37;;;;;;;0.15;0.15;;;;;;;11.51;35.24;100713.09;4857345;29;20025;-84
2022/03/15 10:55:18;;;;;;;0.00;0.00;;;;;;;11.56;34.74;100698.97;4857502;29;20547;-82
2022/03/15 10:58:05;;;;;;;0.47;0.47;;;;;;;11.53;34.14;100695.75;4857389;29;20049;-82
2022/03/15 11:00:37;;;;;;;2.00;0.70;;;;;;;11.56;33.91;100689.09;4842107;29;20033;-82
2022/03/15 11:03:13;;;;;;;0.13;0.13;;;;;;;11.64;34.20;100687.88;4857530;29;20042;-82
2022/03/15 11:05:40;;;;;;;0.65;0.65;;;;;;;11.63;32.78;100670.97;4846281;29;20450;-82
2022/03/15 11:08:11;;;;;;;0.10;0.10;;;;;;;11.63;33.71;100673.66;4846010;29;20070;-82
2022/03/15 11:10:38;;;;;;;0.80;0.80;;;;;;;11.59;32.67;100674.38;4845497;29;20029;-83
2022/03/15 11:13:12;;;;;;;1.45;0.82;;;;;;;11.60;32.74;100667.97;4845909;29;20038;-82
2022/03/15 11:15:43;;;;;;;0.00;0.00;;;;;;;11.59;32.62;100664.47;4845725;29;20035;-84
2022/03/15 11:18:10;;;;;;;1.13;1.08;;;;;;;11.61;32.82;100657.00;4845527;29;20117;-84
2022/03/15 11:20:38;;;;;;;0.00;0.00;;;;;;;11.66;32.67;100653.59;4845674;29;20509;-84
2022/03/15 11:23:07;;;;;;;0.47;0.47;;;;;;;11.71;32.84;100647.53;4845249;29;20044;-84
2022/03/15 11:25:37;;;;;;;0.00;0.00;;;;;;;11.79;33.16;100647.91;4845661;29;20655;-81
2022/03/15 11:28:14;;;;;;;0.10;0.10;;;;;;;11.89;33.06;100641.91;4845350;29;20161;-82
2022/03/15 11:30:42;;;;;;;0.10;0.10;;;;;;;11.97;32.55;100630.81;4845434;29;20057;-82
2022/03/15 11:33:08;;;;;;;0.20;0.20;;;;;;;12.06;32.59;100625.00;4845589;29;20045;-82
2022/03/15 11:35:35;;;;;;;0.00;0.00;;;;;;;12.12;30.44;100616.78;4860839;29;20033;-81
2022/03/15 11:38:04;;;;;;;0.10;0.10;;;;;;;12.16;29.69;100604.50;4845267;29;20034;-82
2022/03/15 11:40:31;;;;;;;0.00;0.00;;;;;;;12.26;29.19;100600.34;4845170;29;20033;-82
2022/03/15 11:43:06;;;;;;;0.10;0.10;;;;;;;12.30;29.11;100599.59;4845463;29;20090;-81
2022/03/15 11:45:40;;;;;;;0.00;0.00;;;;;;;12.38;30.65;100584.09;4860462;29;20033;-81
2022/03/15 11:48:10;;;;;;;0.00;0.00;;;;;;;12.49;31.24;100583.19;4845345;29;20040;-82
2022/03/15 11:50:43;;;;;;;0.00;0.00;;;;;;;12.57;30.88;100588.09;4860662;29;20601;-82
2022/03/15 11:53:18;;;;;;;1.05;0.98;;;;;;;12.54;31.04;100572.50;4860634;29;20060;-83
2022/03/15 11:55:53;;;;;;;0.00;0.00;;;;;;;12.54;30.70;100575.19;4860489;29;20029;-82
2022/03/15 11:58:27;;;;;;;0.00;0.00;;;;;;;12.62;30.26;100564.00;4844808;29;20073;-83
2022/03/15 12:00:54;;;;;;;0.00;0.00;;;;;;;12.69;29.96;100569.16;4860336;29;20033;-82
2022/03/15 12:03:23;;;;;;;0.00;0.00;;;;;;;12.75;30.31;100557.41;4860175;29;20401;-82
2022/03/15 12:05:55;;;;;;;0.03;0.03;;;;;;;12.80;30.03;100551.28;4844870;29;20029;-83
2022/03/15 12:08:28;;;;;;;0.10;0.10;;;;;;;12.87;29.62;100553.78;4859991;29;20046;-82
2022/03/15 12:11:01;;;;;;;1.17;1.17;;;;;;;12.87;28.78;100553.78;4860001;29;20036;-83
2022/03/15 12:13:43;;;;;;;0.00;0.00;;;;;;;12.90;30.10;100547.88;4860046;29;20465;-83
2022/03/15 12:16:18;;;;;;;0.10;0.10;;;;;;;12.95;29.42;100539.88;4844007;29;20048;-83
2022/03/15 12:19:06;;;;;;;0.10;0.10;;;;;;;13.03;28.86;100535.94;4844415;29;20161;-83
2022/03/15 12:21:49;;;;;;;0.10;0.10;;;;;;;13.10;28.39;100531.97;4844475;29;20117;-83
2022/03/15 12:24:19;;;;;;;0.00;0.00;;;;;;;13.16;27.64;100529.31;4844210;29;20038;-82
2022/03/15 12:27:09;;;;;;;0.03;0.03;;;;;;;13.17;26.97;100522.88;4844685;29;20052;-84
2022/03/15 12:29:39;;;;;;;0.00;0.00;;;;;;;13.24;27.98;100523.47;4859670;29;20071;-84
2022/03/15 12:32:14;;;;;;;0.00;0.00;;;;;;;13.28;27.88;100509.25;4843950;29;20033;-82
2022/03/15 12:34:45;;;;;;;0.20;0.20;;;;;;;13.32;28.55;100508.72;4844429;29;20466;-83
2022/03/15 12:37:11;;;;;;;0.00;0.00;;;;;;;13.37;27.39;100514.97;4844370;29;20030;-82
2022/03/15 12:39:37;;;;;;;0.00;0.00;;;;;;;13.37;27.08;100506.09;4843984;29;20048;-83
2022/03/15 12:42:14;;;;;;;0.10;0.10;;;;;;;13.33;26.79;100504.97;4844303;29;20030;-83
2022/03/15 12:44:52;;;;;;;1.13;0.57;;;;;;;13.38;27.47;100494.31;4859712;29;20463;-82
2022/03/15 12:47:26;;;;;;;0.00;0.00;;;;;;;13.45;27.03;100497.56;4844025;29;20038;-83
2022/03/15 12:50:19;;;;;;;0.00;0.00;;;;;;;13.49;26.92;100500.53;4859525;29;20041;-81
2022/03/15 12:52:56;;;;;;;0.20;0.20;;;;;;;13.54;26.67;100487.16;4844096;29;20033;-81
2022/03/15 12:55:35;;;;;;;0.00;0.00;;;;;;;13.55;27.40;100494.13;4859279;29;20634;-83
2022/03/15 12:58:03;;;;;;;0.38;0.38;;;;;;;13.55;26.90;100488.75;4844022;29;20053;-84
2022/03/15 13:00:32;;;;;;;0.00;0.00;;;;;;;13.55;27.84;100484.22;4843834;29;20097;-84
2022/03/15 13:02:58;;;;;;;0.00;0.00;;;;;;;13.60;27.70;100475.38;4859402;29;20205;-83
2022/03/15 13:05:25;;;;;;;0.10;0.10;;;;;;;13.66;27.16;100473.50;4859070;29;20062;-83
2022/03/15 13:07:56;;;;;;;0.77;0.77;;;;;;;13.59;26.09;100471.06;4843972;29;20130;-82
2022/03/15 13:10:39;;;;;;;0.00;0.00;;;;;;;13.66;27.39;100452.81;4858858;29;20573;-82
2022/03/15 13:13:15;;;;;;;0.20;0.20;;;;;;;13.68;27.42;100469.47;4843834;29;20037;-82
2022/03/15 13:15:48;;;;;;;0.65;0.65;;;;;;;13.73;27.11;100466.84;4859129;29;20124;-82
2022/03/15 13:18:17;;;;;;;0.20;0.20;;;;;;;13.69;27.29;100462.22;4843740;29;20040;-82
2022/03/15 13:20:43;;;;;;;0.00;0.00;;;;;;;13.74;27.61;100462.25;4859005;29;20049;-82
2022/03/15 13:23:08;;;;;;;0.08;0.08;;;;;;;13.68;26.65;100456.03;4843584;29;20124;-83
2022/03/15 13:25:36;;;;;;;0.03;0.03;;;;;;;13.64;28.02;100460.31;4843240;29;20036;-84
2022/03/15 13:28:14;;;;;;;0.00;0.00;;;;;;;13.67;27.68;100457.13;4842564;29;20627;-83
2022/03/15 13:30:43;;;;;;;0.00;0.00;;;;;;;13.69;26.86;100449.59;4843231;29;20085;-82
2022/03/15 13:33:13;;;;;;;0.00;0.00;;;;;;;13.66;27.11;100442.06;4843354;29;20041;-82
2022/03/15 13:35:39;;;;;;;1.17;0.43;;;;;;;13.54;26.91;100444.97;4843193;29;20030;-84
2022/03/15 13:38:17;;;;;;;0.10;0.10;;;;;;;13.44;27.32;100434.97;4843409;29;20477;-84
2022/03/15 13:40:47;;;;;;;0.00;0.00;;;;;;;13.36;27.61;100440.00;4843327;29;20494;-84
2022/03/15 13:43:14;;;;;;;0.10;0.10;;;;;;;13.27;27.11;100427.03;4843261;29;20093;-82
2022/03/15 13:45:41;;;;;;;0.00;0.00;;;;;;;13.32;28.40;100433.50;4858454;29;20052;-82
2022/03/15 13:48:07;;;;;;;0.05;0.05;;;;;;;13.39;27.71;100444.88;4843217;29;20494;-82
2022/03/15 13:50:32;;;;;;;1.38;0.50;;;;;;;13.42;27.55;100434.41;4842900;29;20036;-82
2022/03/15 13:52:58;;;;;;;0.30;0.20;;;;;;;13.42;26.98;100428.22;4843121;29;20040;-83
2022/03/15 13:55:29;;;;;;;0.00;0.00;;;;;;;13.41;26.53;100413.97;4842800;29;20037;-83
2022/03/15 13:57:54;;;;;;;0.00;0.00;;;;;;;13.41;27.13;100413.19;4842833;29;20558;-83
2022/03/15 14:00:28;;;;;;;0.00;0.00;;;;;;;13.43;27.05;100417.22;4858082;29;20037;-82
2022/03/15 14:02:55;;;;;;;0.22;0.22;;;;;;;13.43;27.18;100430.66;4858345;29;20065;-82
2022/03/15 14:05:23;;;;;;;0.00;0.00;;;;;;;13.40;26.88;100427.69;4842458;29;20105;-84
2022/03/15 14:08:07;;;;;;;0.00;0.00;;;;;;;13.38;28.21;100419.09;4842841;29;20045;-83
2022/03/15 14:10:33;;;;;;;0.00;0.00;;;;;;;13.34;27.77;100421.47;4842548;29;20036;-83
2022/03/15 14:13:00;;;;;;;0.05;0.05;;;;;;;13.34;27.55;100408.03;4842886;29;20042;-83
2022/03/15 14:15:29;;;;;;;0.15;0.15;;;;;;;13.34;27.05;100417.94;4842560;29;20124;-83
2022/03/15 14:17:58;;;;;;;0.03;0.03;;;;;;;13.36;27.46;100410.44;4842689;29;20040;-83
2022/03/15 14:20:32;;;;;;;0.20;0.20;;;;;;;13.29;26.56;100416.03;4842394;29;20557;-83
2022/03/15 14:23:00;;;;;;;0.20;0.20;;;;;;;13.21;27.28;100403.91;4842597;29;20195;-83
2022/03/15 14:25:34;;;;;;;0.10;0.10;;;;;;;13.22;27.40;100407.38;4842428;29;20102;-82
2022/03/15 14:28:02;;;;;;;0.10;0.10;;;;;;;13.19;28.30;100402.56;4842615;29;20083;-82
2022/03/15 14:30:29;;;;;;;0.08;0.08;;;;;;;13.17;27.09;100399.31;4842266;29;20630;-83
2022/03/15 14:32:58;;;;;;;0.10;0.10;;;;;;;13.15;26.89;100394.19;4857788;29;20033;-83
2022/03/15 14:35:27;;;;;;;0.00;0.00;;;;;;;13.11;26.59;100387.75;4842489;29;20462;-83
2022/03/15 14:38:06;;;;;;;0.00;0.00;;;;;;;13.13;27.00;100390.97;4842473;29;20048;-82
2022/03/15 14:40:38;;;;;;;0.00;0.00;;;;;;;13.13;28.09;100391.78;4842196;29;20136;-83
2022/03/15 14:43:05;;;;;;;0.32;0.32;;;;;;;13.11;26.84;100387.75;4841824;29;20140;-83
2022/03/15 14:45:32;;;;;;;0.00;0.00;;;;;;;13.05;27.59;100392.28;4842074;29;20064;-83
2022/03/15 14:47:58;;;;;;;2.10;0.70;;;;;;;13.06;27.67;100382.31;4842151;29;20035;-83
2022/03/15 14:50:23;;;;;;;0.00;0.00;;;;;;;13.10;27.55;100376.19;4841781;29;20033;-83
2022/03/15 14:52:49;;;;;;;0.00;0.00;;;;;;;13.14;28.01;100392.59;4842160;29;20033;-83
2022/03/15 14:55:17;;;;;;;0.00;0.00;;;;;;;13.15;28.03;100382.66;4842311;29;20030;-83
2022/03/15 14:57:44;;;;;;;0.00;0.00;;;;;;;13.17;27.79;100375.97;4841709;29;20022;-84
2022/03/15 15:00:10;;;;;;;0.00;0.00;;;;;;;13.18;27.70;100390.97;4841903;29;20044;-84
2022/03/15 15:02:36;;;;;;;0.10;0.10;;;;;;;13.18;26.84;100382.94;4841799;29;20036;-83
2022/03/15 15:05:03;;;;;;;0.85;0.85;;;;;;;13.21;27.07;100397.75;4842074;29;20128;-83
2022/03/15 15:07:30;;;;;;;0.00;0.00;;;;;;;13.13;27.27;100391.78;4841907;29;20036;-83
2022/03/15 15:10:00;;;;;;;1.65;0.88;;;;;;;13.13;27.50;100382.91;4842149;29;20429;-83
2022/03/15 15:12:25;;;;;;;0.47;0.47;;;;;;;13.11;27.36;100380.47;4841690;29;20095;-83
2022/03/15 15:14:52;;;;;;;0.00;0.00;;;;;;;13.09;27.57;100384.50;4842092;29;20037;-83
2022/03/15 15:17:21;;;;;;;1.27;1.17;;;;;;;13.09;28.05;100379.13;4842137;29;20125;-83
2022/03/15 15:19:54;;;;;;;0.22;0.22;;;;;;;13.10;27.31;100386.91;4842026;29;20069;-83
2022/03/15 15:22:22;;;;;;;0.35;0.35;;;;;;;13.09;27.43;100379.13;4857394;29;20121;-83
2022/03/15 15:24:48;;;;;;;0.00;0.00;;;;;;;13.06;27.69;100374.25;4841902;29;20041;-83
2022/03/15 15:27:14;;;;;;;0.00;0.00;;;;;;;13.00;27.83;100373.44;4841974;29;20041;-83
2022/03/15 15:29:44;;;;;;;0.10;0.10;;;;;;;12.94;27.73;100371.78;4857163;29;20038;-84
2022/03/15 15:32:15;;;;;;;0.28;0.28;;;;;;;12.91;27.69;100375.78;4857306;29;20068;-83
2022/03/15 15:34:51;;;;;;;0.10;0.10;;;;;;;12.87;27.70;100368.53;4841775;29;20029;-83
2022/03/15 15:37:18;;;;;;;0.00;0.00;;;;;;;12.84;27.72;100364.50;4857093;29;20124;-83
2022/03/15 15:39:48;;;;;;;0.20;0.20;;;;;;;12.77;27.82;100359.31;4841648;29;20033;-83
2022/03/15 15:42:17;;;;;;;0.15;0.15;;;;;;;12.76;28.13;100362.28;4842072;29;20028;-83
2022/03/15 15:44:46;;;;;;;0.55;0.52;;;;;;;12.75;27.93;100353.41;4841590;29;20048;-83
2022/03/15 15:47:24;;;;;;;0.00;0.00;;;;;;;12.74;28.03;100356.34;4841794;29;20390;-83
2022/03/15 15:49:54;;;;;;;0.00;0.00;;;;;;;12.69;28.03;100359.81;4841820;29;20042;-83
2022/03/15 15:52:21;;;;;;;0.00;0.00;;;;;;;12.70;28.06;100366.00;4845150;29;20071;-83
2022/03/15 15:54:53;;;;;;;0.08;0.08;;;;;;;12.63;28.10;100353.59;4844891;29;20486;-82
2022/03/15 15:57:19;;;;;;;0.00;0.00;;;;;;;12.53;28.54;100356.19;4845126;29;20034;-84
2022/03/15 15:59:45;;;;;;;0.08;0.08;;;;;;;12.50;28.56;100359.41;4844798;29;20397;-84
2022/03/15 16:02:12;;;;;;;0.00;0.00;;;;;;;12.47;28.15;100355.38;4845054;29;20025;-84
2022/03/15 16:04:38;;;;;;;0.10;0.10;;;;;;;12.44;28.58;100355.88;4844765;29;20030;-81
2022/03/15 16:07:05;;;;;;;0.45;0.45;;;;;;;12.39;27.89;100349.63;4860505;29;20383;-84
2022/03/15 16:09:30;;;;;;;0.35;0.30;;;;;;;12.35;28.23;100348.53;4844514;29;20025;-83
2022/03/15 16:11:56;;;;;;;0.00;0.00;;;;;;;12.29;28.39;100343.13;4859589;29;20042;-86
2022/03/15 16:14:22;;;;;;;0.00;0.00;;;;;;;12.28;28.82;100352.25;4860446;29;20061;-84
2022/03/15 16:16:47;;;;;;;0.00;0.00;;;;;;;12.25;28.68;100346.56;4860030;29;20048;-87
2022/03/15 16:19:14;;;;;;;0.15;0.15;;;;;;;12.24;29.16;100353.81;4844643;29;20040;-87
2022/03/15 16:21:39;;;;;;;0.30;0.30;;;;;;;12.19;29.23;100350.28;4856748;29;20534;-87
2022/03/15 16:24:05;;;;;;;0.05;0.05;;;;;;;12.12;29.60;100353.16;4844698;29;20045;-91
2022/03/15 16:26:32;;;;;;;1.17;1.02;;;;;;;12.09;29.96;100351.00;4859965;29;20033;-81
2022/03/15 16:28:58;;;;;;;1.02;1.00;;;;;;;12.04;30.32;100359.78;4860128;29;20120;-82
2022/03/15 16:31:26;;;;;;;0.10;0.10;;;;;;;12.01;30.24;100355.75;4859373;29;20029;-87
2022/03/15 16:33:53;;;;;;;0.55;0.55;;;;;;;11.99;30.06;100357.88;4859891;29;20038;-86
2022/03/15 16:36:20;;;;;;;0.90;0.65;;;;;;;11.96;30.40;100358.38;4859621;29;20041;-83
2022/03/15 16:38:45;;;;;;;0.10;0.10;;;;;;;11.89;30.18;100356.91;4843419;29;20089;-85
2022/03/15 16:41:11;;;;;;;0.00;0.00;;;;;;;11.86;30.90;100350.19;4844420;29;20026;-85
2022/03/15 16:43:37;;;;;;;0.00;0.00;;;;;;;11.83;30.91;100353.41;4844194;29;20062;-85
2022/03/15 16:46:03;;;;;;;0.47;0.47;;;;;;;11.79;31.08;100352.25;4858741;29;20072;-85
2022/03/15 16:48:29;;;;;;;0.45;0.45;;;;;;;11.77;31.35;100351.72;4858603;29;20057;-85
2022/03/15 16:50:55;;;;;;;0.00;0.00;;;;;;;11.73;31.42;100338.00;4858656;29;20462;-83
2022/03/15 16:53:20;;;;;;;0.00;0.00;;;;;;;11.69;32.10;100347.59;4859546;29;20037;-82
2022/03/15 16:55:50;;;;;;;0.10;0.10;;;;;;;11.66;31.94;100346.22;4859351;29;20053;-86
2022/03/15 17:01:05;;;;;;;0.00;0.00;;;;;;;11.60;32.14;100341.09;4859550;29;20044;-87
2022/03/15 17:06:16;;;;;;;0.15;0.15;;;;;;;11.48;31.73;100341.22;4860196;29;20413;-82
2022/03/15 17:08:42;;;;;;;0.20;0.20;;;;;;;11.39;32.14;100332.81;4858072;29;20033;-81
2022/03/15 17:11:08;;;;;;;0.00;0.00;;;;;;;11.36;32.08;100341.31;4859066;29;20038;-83
2022/03/15 17:13:33;;;;;;;0.00;0.00;;;;;;;11.30;32.18;100335.13;4858033;29;20038;-80
2022/03/15 17:15:59;;;;;;;0.00;0.00;;;;;;;11.27;32.05;100332.91;4862395;29;20021;-84
2022/03/15 17:18:25;;;;;;;0.32;0.28;;;;;;;11.23;31.94;100339.00;4864892;29;20041;-82
2022/03/15 17:20:55;;;;;;;0.00;0.00;;;;;;;11.19;32.12;100331.50;4868786;29;20029;-83
2022/03/15 17:23:26;;;;;;;0.15;0.15;;;;;;;11.14;32.00;100325.25;4843424;29;20044;-83
2022/03/15 17:25:53;;;;;;;0.32;0.32;;;;;;;11.14;32.25;100327.94;4858479;29;20037;-83
2022/03/15 17:28:19;;;;;;;0.00;0.00;;;;;;;11.10;32.44;100329.50;4858184;29;20485;-84
2022/03/15 17:30:44;;;;;;;0.00;0.00;;;;;;;11.01;32.28;100335.25;4842974;29;20044;-86
2022/03/15 17:33:12;;;;;;;0.00;0.00;;;;;;;10.98;31.94;100337.63;4842997;29;20030;-88
2022/03/15 17:35:38;;;;;;;0.00;0.00;;;;;;;10.95;32.63;100333.56;4858613;29;20120;-88
2022/03/15 17:38:04;;;;;;;0.00;0.00;;;;;;;10.93;32.42;100335.69;4858629;29;20425;-86
2022/03/15 17:40:32;;;;;;;0.00;0.00;;;;;;;10.91;32.25;100328.97;4842801;29;20029;-84
2022/03/15 17:42:59;;;;;;;0.30;0.30;;;;;;;10.88;31.95;100332.94;4858020;29;20113;-88
2022/03/15 17:45:25;;;;;;;0.00;0.00;;;;;;;10.85;31.71;100328.91;4858273;29;20034;-91
2022/03/15 17:47:52;;;;;;;0.10;0.10;;;;;;;10.82;31.91;100325.91;4858059;29;20052;-83
2022/03/15 17:50:17;;;;;;;0.00;0.00;;;;;;;10.70;31.92;100326.00;4843500;29;20029;-90
2022/03/15 17:52:50;;;;;;;0.50;0.50;;;;;;;10.74;31.64;100332.47;4858183;29;20505;-90
2022/03/15 17:55:17;;;;;;;0.57;0.52;;;;;;;10.72;31.87;100331.91;4828353;29;20057;-93
2022/03/15 17:57:49;;;;;;;0.00;0.00;;;;;;;10.66;31.38;100323.00;4857209;29;20036;-87
2022/03/15 18:00:16;;;;;;;0.00;0.00;;;;;;;10.65;32.14;100333.94;4854502;29;20065;-88
2022/03/15 18:02:43;;;;;;;0.00;0.00;;;;;;;10.60;31.80;100328.53;4857540;29;20041;-87
2022/03/15 18:05:09;;;;;;;0.00;0.00;;;;;;;10.57;31.80;100317.25;4873024;29;20037;-89
2022/03/15 18:07:38;;;;;;;0.28;0.28;;;;;;;10.53;31.90;100326.00;4859645;29;20194;-87
2022/03/15 18:12:54;;;;;;;0.00;0.00;;;;;;;10.42;32.27;100325.03;4858009;29;20109;-86
2022/03/15 18:15:34;;;;;;;0.50;0.50;;;;;;;10.37;31.72;100323.06;4857232;29;20033;-84
2022/03/15 18:18:01;;;;;;;0.00;0.00;;;;;;;10.33;32.21;100319.25;4857417;29;20037;-89
2022/03/15 18:20:37;;;;;;;0.20;0.20;;;;;;;10.25;32.27;100328.47;4855522;29;20072;-86
2022/03/15 18:23:07;;;;;;;0.20;0.20;;;;;;;10.22;32.30;100330.84;4824591;29;20505;-92
2022/03/15 18:25:36;;;;;;;0.00;0.00;;;;;;;10.16;32.68;100329.13;4867077;29;20044;-85
2022/03/15 18:28:27;;;;;;;0.22;0.22;;;;;;;10.07;33.00;100336.69;4876596;29;20123;-94
2022/03/15 18:31:23;;;;;;;0.40;0.40;;;;;;;10.00;32.95;100346.75;4863398;29;20124;-92
2022/03/15 18:34:15;;;;;;;0.00;0.00;;;;;;;9.96;33.17;100343.75;4863062;29;20069;-93
2022/03/15 18:36:41;;;;;;;0.05;0.05;;;;;;;9.93;33.59;100345.03;4847022;29;20117;-93